Time;durP1;ratioP1;P1;durP2;ratioP2;P2;SDS_P1;SDS_P2;PMS_P1;PMS_P2;Temp;Humidity;BMP_temperature;BMP_pressure;BME280_temperature;BME280_humidity;BME280_pressure;Samples;Min_cycle;Max_cycle;Signal;HPM_P1;HPM_P2
2021/05/31 00:02:53;;;;;;;;;25.75;25.00;;;;;20.10;63.74;101050.50;5133582;27;9447;-72
2021/05/31 00:05:49;;;;;;;;;23.50;21.25;;;;;20.30;63.71;101065.09;5119318;27;8823;-72
2021/05/31 00:08:45;;;;;;;;;22.50;22.50;;;;;20.39;62.03;101064.78;5134073;27;8945;-72
2021/05/31 00:11:40;;;;;;;;;15.00;15.00;;;;;20.38;63.19;101058.34;5121326;27;9692;-72
2021/05/31 00:14:36;;;;;;;;;15.25;13.75;;;;;20.53;63.04;101057.28;5133035;27;9556;-72
2021/05/31 00:17:32;;;;;;;;;13.75;13.75;;;;;20.63;63.28;101052.97;5133171;27;9691;-72
2021/05/31 00:20:28;;;;;;;;;13.00;13.00;;;;;20.63;63.58;101052.97;5133474;27;8831;-72
2021/05/31 00:23:24;;;;;;;;;12.25;12.25;;;;;20.56;62.52;101052.91;5133609;27;8831;-72
2021/05/31 00:26:19;;;;;;;;;14.25;12.75;;;;;20.24;62.49;101053.44;5099175;28;8911;-72
2021/05/31 00:29:16;;;;;;;;;12.25;12.25;;;;;20.00;63.10;101046.38;5112610;28;8825;-72
2021/05/31 00:32:12;;;;;;;;;11.00;11.00;;;;;20.19;63.30;101047.38;5113138;28;8880;-71
2021/05/31 00:35:09;;;;;;;;;17.00;16.75;;;;;20.24;64.21;101047.81;5112851;28;8956;-72
2021/05/31 00:38:04;;;;;;;;;21.00;21.00;;;;;20.17;63.15;101042.16;5112456;28;8845;-72
2021/05/31 00:41:06;;;;;;;;;22.50;21.50;;;;;20.09;63.88;101042.44;5112932;28;8833;-72
2021/05/31 00:44:02;;;;;;;;;26.75;26.75;;;;;20.23;64.09;101051.00;5124098;27;8925;-72
2021/05/31 00:46:58;;;;;;;;;24.00;21.50;;;;;20.13;63.78;101043.28;5132788;27;8934;-72
2021/05/31 00:49:54;;;;;;;;;32.75;30.25;;;;;20.12;63.83;101042.50;5133255;27;8869;-72
2021/05/31 00:52:52;;;;;;;;;27.50;26.50;;;;;20.09;64.56;101034.03;5120245;27;8886;-72
2021/05/31 00:55:48;;;;;;;;;30.50;29.00;;;;;20.00;63.49;101037.16;5132904;27;8838;-72
2021/05/31 00:58:43;;;;;;;;;20.50;20.25;;;;;19.88;63.80;101038.25;5132452;27;8839;-72
2021/05/31 01:01:40;;;;;;;;;26.00;25.75;;;;;19.80;63.81;101038.56;5128293;27;8819;-72
2021/05/31 01:04:35;;;;;;;;;32.33;30.00;;;;;19.83;63.87;101037.78;5133645;27;8915;-73
2021/05/31 01:07:42;;;;;;;;;30.75;30.00;;;;;19.96;65.21;101039.13;5132796;27;9693;-72
2021/05/31 01:10:53;;;;;;;;;12.00;12.00;;;;;19.75;64.26;101030.50;5119011;27;8823;-72
2021/05/31 01:14:09;;;;;;;;;17.25;16.00;;;;;19.87;65.37;101035.84;5132693;27;8858;-72
2021/05/31 01:17:17;;;;;;;;;10.00;10.00;;;;;19.93;64.80;101037.88;5132708;27;8850;-74
2021/05/31 01:20:35;;;;;;;;;11.75;11.75;;;;;19.85;64.22;101039.00;5118946;27;8854;-73
2021/05/31 01:23:35;;;;;;;;;8.50;7.25;;;;;19.42;64.15;101048.94;5112340;28;8805;-72
2021/05/31 01:27:05;;;;;;;;;10.50;10.50;;;;;19.71;64.55;101036.91;5112208;28;8853;-73
2021/05/31 01:30:11;;;;;;;;;9.50;9.50;;;;;19.77;64.21;101040.13;5126479;27;8824;-72
2021/05/31 01:33:12;;;;;;;;;12.50;12.50;;;;;19.48;65.19;101041.81;5136253;27;9636;-72
2021/05/31 01:36:09;;;;;;;;;14.75;13.50;;;;;19.73;65.12;101047.72;5136668;27;9000;-72
2021/05/31 01:39:05;;;;;;;;;8.00;8.00;;;;;19.69;65.48;101044.88;5136722;27;8831;-72
2021/05/31 01:42:01;;;;;;;;;9.00;9.00;;;;;19.51;64.92;101041.03;5122515;27;8815;-72
2021/05/31 01:44:59;;;;;;;;;9.50;8.75;;;;;19.45;64.21;101042.56;5136439;27;8835;-72
2021/05/31 01:47:55;;;;;;;;;11.25;11.25;;;;;19.48;66.19;101052.22;5136499;27;8858;-72
2021/05/31 01:50:52;;;;;;;;;10.75;10.75;;;;;19.56;64.46;101045.50;5136278;27;8855;-72
2021/05/31 01:53:49;;;;;;;;;10.75;10.75;;;;;19.39;66.35;101049.69;5136289;27;8827;-72
2021/05/31 01:56:48;;;;;;;;;9.25;9.25;;;;;19.53;65.79;101043.44;5135967;27;8866;-73
2021/05/31 01:59:44;;;;;;;;;8.00;8.00;;;;;19.48;65.36;101052.22;5136041;27;8816;-73
2021/05/31 02:02:40;;;;;;;;;8.00;8.00;;;;;19.51;64.56;101043.03;5135933;27;9435;-72
2021/05/31 02:05:36;;;;;;;;;8.25;8.25;;;;;19.52;65.29;101044.66;5136056;27;8808;-73
2021/05/31 02:08:32;;;;;;;;;8.00;8.00;;;;;19.49;64.91;101049.03;5135712;27;8973;-72
2021/05/31 02:11:35;;;;;;;;;11.25;11.25;;;;;19.59;65.76;101045.56;5136026;27;8839;-72
2021/05/31 02:14:51;;;;;;;;;9.00;9.00;;;;;19.59;64.45;101039.97;5135736;27;8862;-73
2021/05/31 02:18:03;;;;;;;;;10.25;9.00;;;;;19.50;64.17;101050.66;5135563;27;8831;-72
2021/05/31 02:21:20;;;;;;;;;9.00;8.00;;;;;19.56;65.80;101045.50;5136035;27;8835;-73
2021/05/31 02:24:18;;;;;;;;;11.75;11.25;;;;;19.45;64.56;101051.78;5135577;27;8913;-73
2021/05/31 02:27:16;;;;;;;;;9.25;9.25;;;;;19.42;64.04;101060.16;5122037;27;8827;-72
2021/05/31 02:30:13;;;;;;;;;7.50;7.50;;;;;19.24;65.11;101059.13;5135387;27;8867;-72
2021/05/31 02:33:09;;;;;;;;;9.00;9.00;;;;;19.34;65.26;101055.66;5135324;27;8965;-72
2021/05/31 02:36:05;;;;;;;;;8.50;8.50;;;;;19.51;65.21;101052.25;5135899;27;8828;-73
2021/05/31 02:39:01;;;;;;;;;7.75;7.50;;;;;19.50;65.24;101055.44;5135100;27;8835;-73
2021/05/31 02:41:57;;;;;;;;;8.00;7.75;;;;;19.53;65.15;101049.88;5134596;27;8820;-73
2021/05/31 02:44:53;;;;;;;;;9.00;9.00;;;;;19.49;65.18;101046.22;5134121;27;9031;-72
2021/05/31 02:47:49;;;;;;;;;10.50;10.50;;;;;19.65;65.17;101049.66;5135421;27;8850;-73
2021/05/31 02:50:45;;;;;;;;;8.00;8.00;;;;;19.75;63.65;101045.34;5136089;27;8838;-73
2021/05/31 02:53:40;;;;;;;;;8.50;8.50;;;;;19.64;64.18;101047.22;5121728;27;8857;-73
2021/05/31 02:56:36;;;;;;;;;7.00;7.00;;;;;19.62;64.41;101049.59;5135466;27;8843;-73
2021/05/31 02:59:31;;;;;;;;;5.00;5.00;;;;;19.65;64.13;101043.22;5122958;27;8931;-72
2021/05/31 03:02:27;;;;;;;;;6.00;6.00;;;;;19.73;65.10;101046.91;5135147;27;8913;-73
2021/05/31 03:05:26;;;;;;;;;7.00;7.00;;;;;19.80;64.33;101044.19;5135401;27;8823;-72
2021/05/31 03:08:22;;;;;;;;;8.00;8.00;;;;;19.77;64.39;101053.38;5134603;27;9647;-73
2021/05/31 03:11:17;;;;;;;;;10.25;10.25;;;;;19.57;64.34;101066.78;5120575;27;8945;-73
2021/05/31 03:14:13;;;;;;;;;8.75;8.75;;;;;19.50;64.67;101061.06;5134063;27;8931;-73
2021/05/31 03:17:08;;;;;;;;;9.00;9.00;;;;;19.63;65.33;101054.84;5134438;27;8837;-73
2021/05/31 03:20:05;;;;;;;;;8.00;7.75;;;;;19.93;64.38;101053.94;5134794;27;8899;-73
2021/05/31 03:23:01;;;;;;;;;7.75;7.75;;;;;19.99;65.29;101044.78;5134012;27;8858;-73
2021/05/31 03:25:57;;;;;;;;;7.50;7.50;;;;;20.26;65.43;101053.84;5134536;27;8847;-73
2021/05/31 03:28:53;;;;;;;;;8.25;8.25;;;;;19.94;62.25;101061.19;5121300;27;8846;-72
2021/05/31 03:31:48;;;;;;;;;8.00;8.00;;;;;20.14;64.16;101059.75;5134164;27;8831;-72
2021/05/31 03:34:44;;;;;;;;;7.25;7.25;;;;;20.26;63.84;101058.66;5134856;27;8839;-73
2021/05/31 03:37:41;;;;;;;;;5.50;5.50;;;;;20.32;63.61;101061.91;5120380;27;9616;-72
2021/05/31 03:40:36;;;;;;;;;5.75;5.75;;;;;20.16;62.90;101057.34;5120489;27;8819;-72
2021/05/31 03:43:33;;;;;;;;;8.00;8.00;;;;;19.86;62.44;101051.88;5134375;27;8870;-72
2021/05/31 03:46:30;;;;;;;;;8.75;8.75;;;;;20.11;62.96;101048.50;5134060;27;8835;-72
2021/05/31 03:49:26;;;;;;;;;8.00;8.00;;;;;20.37;64.29;101053.13;5133762;27;8847;-72
2021/05/31 03:52:21;;;;;;;;;11.25;11.25;;;;;20.37;62.70;101045.50;5113016;28;8845;-72
2021/05/31 03:55:18;;;;;;;;;12.50;12.50;;;;;20.46;63.35;101051.63;5113228;28;8972;-72
2021/05/31 03:58:13;;;;;;;;;13.00;13.00;;;;;20.51;61.82;101044.84;5113280;28;8829;-72
2021/05/31 04:01:11;;;;;;;;;13.25;13.25;;;;;20.50;62.15;101058.09;5101129;28;9112;-72
2021/05/31 04:04:06;;;;;;;;;13.00;13.00;;;;;20.59;62.94;101057.75;5113114;28;9058;-72
2021/05/31 04:13:30;;;;;;;;;17.75;13.75;;;;;20.50;63.50;101046.03;5133432;27;8847;-72
2021/05/31 04:16:28;;;;;;;;;11.00;11.00;;;;;20.46;62.52;101046.00;5133939;27;9541;-72
2021/05/31 04:19:27;;;;;;;;;9.75;9.75;;;;;20.89;62.52;101046.31;5119930;27;8867;-72
2021/05/31 04:22:23;;;;;;;;;10.50;10.50;;;;;20.94;60.87;101050.75;5134091;27;8823;-73
2021/05/31 04:25:19;;;;;;;;;9.50;9.50;;;;;20.93;60.73;101041.47;5133512;27;8857;-72
2021/05/31 04:28:14;;;;;;;;;8.25;8.25;;;;;20.83;61.39;101050.66;5133441;27;8819;-72
2021/05/31 04:31:10;;;;;;;;;8.00;8.00;;;;;21.27;61.42;101058.16;5133814;27;8827;-73
2021/05/31 04:34:08;;;;;;;;;8.50;8.50;;;;;21.27;61.61;101061.78;5132671;27;9676;-72
2021/05/31 04:37:04;;;;;;;;;7.75;7.50;;;;;21.12;60.51;101057.28;5133019;27;8837;-72
2021/05/31 04:40:00;;;;;;;;;8.25;8.25;;;;;21.27;60.71;101058.16;5133561;27;8831;-73
2021/05/31 04:42:55;;;;;;;;;8.50;8.50;;;;;21.49;59.74;101050.63;5132829;27;8846;-73
2021/05/31 04:45:51;;;;;;;;;8.00;8.00;;;;;21.40;59.72;101055.81;5131895;27;8819;-74
2021/05/31 04:48:47;;;;;;;;;10.00;10.00;;;;;21.76;59.70;101046.25;5132682;27;8835;-73
2021/05/31 04:51:43;;;;;;;;;9.00;9.00;;;;;21.84;60.89;101061.97;5119154;27;9007;-71
2021/05/31 04:54:41;;;;;;;;;12.75;12.75;;;;;21.95;59.46;101053.56;5120782;27;8846;-72
2021/05/31 04:57:36;;;;;;;;;20.25;19.25;;;;;21.31;59.26;101064.59;5133195;27;8811;-73
2021/05/31 05:00:32;;;;;;;;;13.25;13.25;;;;;21.80;60.35;101077.25;5119343;27;8958;-72
2021/05/31 05:03:28;;;;;;;;;9.75;9.75;;;;;21.81;59.73;101073.22;5133600;27;8835;-72
2021/05/31 05:06:23;;;;;;;;;6.50;6.50;;;;;21.64;58.84;101069.97;5117577;27;8955;-71
2021/05/31 05:09:19;;;;;;;;;8.00;8.00;;;;;21.76;58.51;101068.78;5123288;27;8849;-73
2021/05/31 05:12:16;;;;;;;;;9.25;9.25;;;;;22.22;60.07;101064.47;5136921;27;8831;-72
2021/05/31 05:15:13;;;;;;;;;6.00;6.00;;;;;22.32;59.03;101070.13;5137524;27;8997;-72
2021/05/31 05:18:08;;;;;;;;;24.50;23.50;;;;;22.53;58.73;101068.47;5137000;27;8827;-72
2021/05/31 05:21:04;;;;;;;;;7.50;7.50;;;;;22.32;57.17;101067.31;5136379;27;8823;-72
2021/05/31 05:23:59;;;;;;;;;22.75;22.25;;;;;22.70;58.09;101070.50;5135944;27;8839;-72
2021/05/31 05:26:55;;;;;;;;;34.00;30.75;;;;;23.02;58.99;101076.09;5136324;27;8839;-72
2021/05/31 05:29:50;;;;;;;;;12.50;12.50;;;;;23.17;55.86;101068.41;5135788;27;8823;-72
2021/05/31 05:32:48;;;;;;;;;3.60;3.60;;;;;22.63;55.11;101068.50;5115803;28;8836;-72
2021/05/31 05:35:56;;;;;;;;;23.25;20.75;;;;;23.07;57.31;101075.66;5128820;27;8833;-72
2021/05/31 05:42:21;;;;;;;;;12.00;10.60;;;;;23.29;54.46;101082.06;5136313;27;8850;-71
2021/05/31 05:45:37;;;;;;;;;7.00;7.00;;;;;23.06;54.95;101067.63;5121898;27;8827;-71
2021/05/31 05:48:33;;;;;;;;;12.25;12.00;;;;;22.88;54.94;101068.47;5135335;27;8824;-71
2021/05/31 05:51:28;;;;;;;;;6.20;6.20;;;;;22.76;54.44;101066.84;5121285;27;8927;-71
2021/05/31 05:54:24;;;;;;;;;3.00;3.00;;;;;23.06;55.16;101064.81;5131654;27;8876;-71
2021/05/31 05:57:19;;;;;;;;;4.00;4.00;;;;;23.11;54.87;101058.75;5132382;27;8847;-72
2021/05/31 06:00:21;;;;;;;;;2.00;2.00;;;;;22.67;54.24;101055.19;5135579;27;8877;-71
2021/05/31 06:03:16;;;;;;;;;6.40;6.40;;;;;22.76;54.87;101054.75;5134554;27;8819;-71
2021/05/31 06:06:12;;;;;;;;;8.50;8.50;;;;;23.08;55.14;101060.38;5135716;27;8843;-71
2021/05/31 06:09:08;;;;;;;;;4.00;4.00;;;;;22.69;53.61;101064.03;5136389;27;8803;-72
2021/05/31 06:12:04;;;;;;;;;5.00;5.00;;;;;23.34;54.61;101067.53;5114614;28;8829;-72
2021/05/31 06:15:00;;;;;;;;;6.20;6.20;;;;;23.76;54.98;101071.38;5115537;28;9558;-72
2021/05/31 06:17:56;;;;;;;;;4.60;4.60;;;;;23.69;54.11;101058.09;5115534;28;8825;-72
2021/05/31 06:20:53;;;;;;;;;6.60;6.60;;;;;23.91;54.50;101067.25;5115124;28;8841;-73
2021/05/31 06:23:50;;;;;;;;;6.40;6.40;;;;;23.22;54.19;101056.69;5115063;28;8918;-72
2021/05/31 06:26:45;;;;;;;;;4.00;4.00;;;;;23.27;55.56;101051.44;5114849;28;9664;-71
2021/05/31 06:29:41;;;;;;;;;5.80;5.80;;;;;23.37;54.30;101046.13;5114140;28;8869;-71
2021/05/31 06:32:36;;;;;;;;;7.00;7.00;;;;;23.55;54.39;101044.06;5103689;28;8836;-72
2021/05/31 06:35:32;;;;;;;;;4.40;4.40;;;;;23.62;55.16;101040.41;5101030;28;8872;-72
2021/05/31 06:38:28;;;;;;;;;5.00;5.00;;;;;23.57;54.88;101044.44;5094719;28;8873;-72
2021/05/31 06:41:25;;;;;;;;;5.60;5.60;;;;;23.53;55.19;101030.31;5094440;28;8855;-72
2021/05/31 06:44:21;;;;;;;;;5.00;5.00;;;;;23.33;55.15;101037.72;5075891;28;8817;-71
2021/05/31 06:47:16;;;;;;;;;5.00;5.00;;;;;23.42;55.66;101037.25;5113637;28;8853;-72
2021/05/31 06:50:12;;;;;;;;;4.00;4.00;;;;;23.54;54.87;101034.78;5100259;28;8906;-71
2021/05/31 06:53:08;;;;;;;;;4.00;4.00;;;;;23.76;54.94;101031.84;5114673;28;9762;-72
2021/05/31 06:56:04;;;;;;;;;5.80;5.80;;;;;23.57;54.71;101033.94;5114528;28;8833;-72
2021/05/31 06:58:59;;;;;;;;;6.60;6.60;;;;;23.85;55.26;101041.47;5114559;28;8906;-73
2021/05/31 07:01:55;;;;;;;;;4.00;4.00;;;;;24.18;53.74;101042.03;5114677;28;8848;-71
2021/05/31 07:04:51;;;;;;;;;9.80;9.80;;;;;23.92;53.81;101043.44;5094121;28;8914;-72
2021/05/31 07:07:47;;;;;;;;;5.60;5.60;;;;;24.18;52.69;101041.25;5097898;28;8817;-73
2021/05/31 07:10:44;;;;;;;;;4.00;4.00;;;;;23.95;53.34;101033.34;5101112;28;8841;-72
2021/05/31 07:13:41;;;;;;;;;5.20;4.80;;;;;24.14;53.68;101027.94;5114252;28;9570;-72
2021/05/31 07:16:40;;;;;;;;;5.00;5.00;;;;;23.96;53.55;101021.63;5114256;28;8841;-72
2021/05/31 07:19:36;;;;;;;;;3.60;3.60;;;;;23.87;53.71;101021.28;5113502;28;9624;-72
2021/05/31 07:22:32;;;;;;;;;7.00;7.00;;;;;24.16;53.07;101029.56;5112391;28;9000;-72
2021/05/31 07:25:27;;;;;;;;;7.60;7.60;;;;;24.19;53.25;101017.41;5113602;28;9741;-72
2021/05/31 07:28:23;;;;;;;;;5.20;5.20;;;;;24.41;53.12;101033.00;5112667;28;8821;-72
2021/05/31 07:31:21;;;;;;;;;4.60;4.60;;;;;24.86;52.26;101035.78;5113518;28;9014;-73
2021/05/31 07:34:18;;;;;;;;;6.00;5.40;;;;;25.08;51.18;101025.06;5112893;28;9807;-71
2021/05/31 07:37:13;;;;;;;;;7.00;7.00;;;;;25.31;51.04;101027.22;5093233;28;8858;-73
2021/05/31 07:40:12;;;;;;;;;4.00;4.00;;;;;24.98;50.82;101026.75;5093530;28;8851;-72
2021/05/31 07:43:08;;;;;;;;;4.00;4.00;;;;;25.23;50.67;101026.50;5099360;28;8817;-72
2021/05/31 07:46:04;;;;;;;;;4.20;4.20;;;;;25.10;50.70;101025.44;5110961;28;8821;-71
2021/05/31 07:48:59;;;;;;;;;3.80;3.80;;;;;25.09;50.24;101021.81;5110612;28;8926;-71
2021/05/31 07:51:56;;;;;;;;;4.60;4.60;;;;;25.20;51.09;101022.47;5079835;28;8844;-71
2021/05/31 07:54:52;;;;;;;;;3.20;3.20;;;;;25.53;49.54;101025.66;5110545;28;8841;-71
2021/05/31 07:57:48;;;;;;;;;4.80;4.80;;;;;25.30;49.73;101023.53;5114298;28;8857;-74
2021/05/31 08:00:43;;;;;;;;;3.40;3.40;;;;;25.62;49.66;101023.13;5112673;28;8931;-72
2021/05/31 08:03:41;;;;;;;;;4.00;4.00;;;;;25.64;49.45;101028.38;5112953;28;8859;-74
2021/05/31 08:06:37;;;;;;;;;5.20;5.20;;;;;26.09;49.46;101028.94;5113118;28;8825;-73
2021/05/31 08:09:33;;;;;;;;;4.60;4.60;;;;;25.55;47.81;101030.94;5112893;28;8849;-74
2021/05/31 08:12:28;;;;;;;;;3.80;3.80;;;;;25.77;49.30;101018.91;5124912;27;8831;-72
2021/05/31 08:15:24;;;;;;;;;7.60;6.80;;;;;26.09;48.49;101019.63;5127518;27;8871;-72
2021/05/31 08:18:20;;;;;;;;;4.00;4.00;;;;;25.87;48.44;101027.66;5126418;27;8826;-72
2021/05/31 08:21:16;;;;;;;;;4.60;4.60;;;;;25.99;48.66;101018.53;5133658;27;8819;-71
2021/05/31 08:24:12;;;;;;;;;4.40;4.40;;;;;25.12;49.49;101020.94;5139586;27;9240;-72
2021/05/31 08:27:08;;;;;;;;;5.60;5.60;;;;;24.98;49.20;101023.13;5139341;27;8876;-73
2021/05/31 08:30:04;;;;;;;;;4.80;4.80;;;;;25.46;49.50;101020.94;5136160;27;8969;-72
2021/05/31 08:33:03;;;;;;;;;5.20;5.20;;;;;25.79;50.81;101024.13;5137587;27;8867;-73
2021/05/31 08:35:58;;;;;;;;;4.20;4.20;;;;;25.95;49.42;101026.31;5131990;27;8914;-72
2021/05/31 08:39:00;;;;;;;;;4.00;4.00;;;;;26.00;48.94;101026.63;5133726;27;8827;-73
2021/05/31 08:41:57;;;;;;;;;5.00;5.00;;;;;26.44;47.96;101021.84;5129667;27;8842;-73
2021/05/31 08:44:53;;;;;;;;;4.00;4.00;;;;;26.42;47.38;101020.69;5126894;27;8855;-73
2021/05/31 08:47:51;;;;;;;;;3.60;3.60;;;;;26.28;47.61;101014.00;5133316;27;8858;-73
2021/05/31 08:50:47;;;;;;;;;4.40;4.40;;;;;26.37;47.29;101010.59;5132201;27;8974;-73
2021/05/31 08:53:43;;;;;;;;;3.40;3.40;;;;;26.15;47.38;101010.19;5119827;27;8835;-72
2021/05/31 08:56:42;;;;;;;;;4.00;4.00;;;;;26.04;48.08;101018.88;5133011;27;9642;-73
2021/05/31 08:59:40;;;;;;;;;6.00;6.00;;;;;26.31;48.10;101007.50;5133779;27;8872;-73
2021/05/31 09:02:37;;;;;;;;;8.80;8.60;;;;;26.15;48.70;101015.88;5131790;27;8950;-73
2021/05/31 09:05:38;;;;;;;;;5.20;5.20;;;;;25.86;47.65;101015.53;5132625;27;8835;-72
2021/05/31 09:08:36;;;;;;;;;8.20;8.20;;;;;25.81;49.47;101018.03;5130468;27;8881;-73
2021/05/31 09:11:33;;;;;;;;;9.40;9.40;;;;;25.69;48.82;101008.88;5115697;27;8970;-74
2021/05/31 09:14:28;;;;;;;;;7.00;7.00;;;;;25.65;49.34;101008.09;5132440;27;8844;-71
2021/05/31 09:17:26;;;;;;;;;4.80;4.80;;;;;25.38;49.83;100998.78;5119069;27;9010;-72
2021/05/31 09:20:24;;;;;;;;;4.80;4.80;;;;;25.33;49.42;101008.56;5131897;27;8850;-71
2021/05/31 09:23:19;;;;;;;;;4.80;4.80;;;;;25.33;50.46;101002.91;5122366;27;8823;-71
2021/05/31 09:26:15;;;;;;;;;7.60;7.60;;;;;25.34;51.03;101003.69;5127744;27;8836;-71
2021/05/31 09:29:11;;;;;;;;;7.40;7.40;;;;;25.10;50.58;100999.97;5119318;27;8823;-72
2021/05/31 09:32:07;;;;;;;;;9.80;9.80;;;;;25.22;50.76;100999.41;5134240;27;8831;-72
2021/05/31 09:35:36;;;;;;;;;10.60;10.60;;;;;25.16;50.49;100995.44;5132617;27;9638;-73
2021/05/31 09:38:47;;;;;;;;;12.20;12.20;;;;;25.38;50.94;100998.78;5112630;28;8842;-70
2021/05/31 09:41:43;;;;;;;;;12.80;12.80;;;;;25.37;50.22;100994.34;5133287;27;8851;-75
2021/05/31 09:44:11;;;;;;;;;9.20;9.20;;;;;24.94;51.83;100994.88;5135803;27;8858;-73
2021/05/31 09:47:07;;;;;;;;;10.80;10.60;;;;;25.18;52.19;100993.78;5135788;27;9592;-76
2021/05/31 09:50:05;;;;;;;;;7.80;7.80;;;;;24.86;52.70;100997.00;5136513;27;8858;-72
2021/05/31 09:53:10;;;;;;;;;4.40;4.40;;;;;24.90;52.56;100991.28;5133284;27;8857;-73
2021/05/31 09:56:13;;;;;;;;;14.40;12.40;;;;;24.99;53.12;100991.56;5139277;27;8908;-72
2021/05/31 09:59:18;;;;;;;;;8.40;8.40;;;;;25.07;52.94;100995.13;5136710;27;8835;-72
2021/05/31 10:02:18;;;;;;;;;6.80;6.80;;;;;25.39;52.42;100989.88;5132557;27;8834;-72
2021/05/31 10:06:38;;;;;;;;;8.00;8.00;;;;;25.28;51.86;100994.88;5126893;27;8827;-72
2021/05/31 10:08:46;;;;;;;;;7.40;7.40;;;;;25.14;52.58;100995.84;5115168;28;8833;-72
2021/05/31 10:11:42;;;;;;;;;10.20;10.20;;;;;24.87;53.17;101004.25;5115460;28;8842;-71
2021/05/31 10:14:39;;;;;;;;;7.00;7.00;;;;;24.35;52.84;101000.75;5132883;27;8881;-72
2021/05/31 10:17:35;;;;;;;;;8.00;8.00;;;;;24.67;53.28;101000.41;5136050;27;8831;-72
2021/05/31 10:20:32;;;;;;;;;9.60;9.00;;;;;24.18;54.67;100998.88;5136100;27;8815;-74
2021/05/31 10:23:27;;;;;;;;;7.80;7.80;;;;;24.55;54.32;100990.47;5134433;27;8819;-73
2021/05/31 10:26:27;;;;;;;;;10.00;10.00;;;;;24.83;53.38;100991.34;5134917;27;9575;-74
2021/05/31 10:29:23;;;;;;;;;14.40;14.40;;;;;24.82;53.99;100995.41;5134160;27;8827;-73
2021/05/31 10:32:19;;;;;;;;;8.80;8.80;;;;;24.70;53.42;100987.47;5121827;27;8823;-72
2021/05/31 10:35:18;;;;;;;;;8.00;8.00;;;;;24.90;52.95;100991.28;5134429;27;9758;-72
2021/05/31 10:38:20;;;;;;;;;5.80;5.80;;;;;24.86;52.53;100994.16;5135751;27;8812;-73
2021/05/31 10:41:24;;;;;;;;;7.00;7.00;;;;;24.79;53.21;100996.28;5118503;27;8845;-73
2021/05/31 10:44:19;;;;;;;;;9.00;8.40;;;;;24.53;53.14;100984.41;5130320;27;8862;-73
2021/05/31 10:47:26;;;;;;;;;5.40;5.40;;;;;24.56;52.81;100982.78;5135240;27;8892;-74
2021/05/31 10:50:52;;;;;;;;;9.00;7.80;;;;;24.34;53.23;100979.38;5131763;27;8830;-73
2021/05/31 10:53:48;;;;;;;;;8.80;8.40;;;;;24.36;53.83;100979.75;5117699;27;8847;-72
2021/05/31 10:56:45;;;;;;;;;8.80;8.80;;;;;24.45;53.69;100982.06;5101325;28;8821;-71
2021/05/31 10:59:51;;;;;;;;;6.20;6.20;;;;;24.32;52.50;100984.59;5129935;27;8899;-72
2021/05/31 11:02:47;;;;;;;;;11.80;11.80;;;;;24.48;53.34;100990.53;5135130;27;8864;-73
2021/05/31 11:05:43;;;;;;;;;9.20;9.20;;;;;24.41;52.96;100976.47;5135383;27;8843;-73
2021/05/31 11:08:48;;;;;;;;;6.80;6.80;;;;;24.40;52.97;100978.50;5132630;27;8819;-73
2021/05/31 11:11:48;;;;;;;;;4.20;4.20;;;;;24.30;52.86;100985.00;5134786;27;8842;-73
2021/05/31 11:14:45;;;;;;;;;9.60;9.60;;;;;24.20;53.45;100979.47;5134829;27;8815;-72
2021/05/31 11:17:49;;;;;;;;;7.20;6.60;;;;;23.74;53.95;100983.47;5100790;28;8825;-73
2021/05/31 11:20:45;;;;;;;;;5.60;5.60;;;;;23.85;53.59;100975.72;5100453;28;8848;-73
2021/05/31 11:23:41;;;;;;;;;6.60;6.60;;;;;24.08;54.29;100975.13;5113937;28;8825;-73
2021/05/31 11:26:39;;;;;;;;;9.80;9.80;;;;;23.96;53.51;100975.63;5114035;28;8840;-75
2021/05/31 11:29:36;;;;;;;;;4.80;4.80;;;;;23.34;54.06;100974.41;5114041;28;8826;-73
2021/05/31 11:32:31;;;;;;;;;7.00;7.00;;;;;23.52;55.69;100972.28;5114203;28;8829;-73
2021/05/31 11:35:28;;;;;;;;;7.60;7.60;;;;;23.51;54.43;100976.31;5121362;27;8865;-73
2021/05/31 11:38:26;;;;;;;;;6.20;6.20;;;;;23.53;54.25;100964.59;5134197;27;8861;-71
2021/05/31 11:41:43;;;;;;;;;8.50;8.50;;;;;23.62;53.99;100970.66;5135196;27;8861;-73
2021/05/31 11:44:39;;;;;;;;;6.00;6.00;;;;;23.89;54.23;100965.19;5133527;27;8811;-72
2021/05/31 11:47:41;;;;;;;;;6.00;6.00;;;;;23.22;55.37;100972.03;5136766;27;8875;-83
2021/05/31 11:50:40;;;;;;;;;4.20;4.20;;;;;23.41;54.77;100968.72;5122899;27;8826;-73
2021/05/31 11:53:44;;;;;;;;;8.20;7.60;;;;;23.60;54.31;100956.13;5112201;28;8856;-71
2021/05/31 11:56:40;;;;;;;;;7.40;7.40;;;;;23.29;53.84;100955.88;5093340;28;8827;-74
2021/05/31 11:59:37;;;;;;;;;7.40;7.40;;;;;23.23;54.58;100963.19;5128077;27;8842;-72
2021/05/31 12:02:38;;;;;;;;;10.80;10.80;;;;;23.98;54.00;100959.06;5130920;27;8843;-72
2021/05/31 12:05:36;;;;;;;;;8.00;8.00;;;;;24.20;54.37;100965.31;5126137;27;8839;-73
2021/05/31 12:08:31;;;;;;;;;5.00;5.00;;;;;24.09;52.71;100963.41;5126456;27;8851;-74
2021/05/31 12:11:28;;;;;;;;;5.40;4.80;;;;;24.10;53.82;100958.56;5127231;27;8848;-73
2021/05/31 12:14:26;;;;;;;;;7.00;7.00;;;;;23.97;52.66;100963.91;5125579;27;8855;-74
2021/05/31 12:17:27;;;;;;;;;7.40;7.40;;;;;24.17;51.85;100952.84;5138987;27;8862;-74
2021/05/31 12:20:39;;;;;;;;;6.20;6.20;;;;;24.59;51.53;100951.63;5122830;27;8950;-72
2021/05/31 12:23:35;;;;;;;;;5.40;5.40;;;;;24.07;51.42;100960.19;5133383;27;8839;-73
2021/05/31 12:26:31;;;;;;;;;10.40;9.40;;;;;24.19;52.75;100969.38;5133490;27;8978;-72
2021/05/31 12:29:46;;;;;;;;;10.00;9.60;;;;;24.34;52.10;100968.06;5119855;27;8839;-71
2021/05/31 12:32:44;;;;;;;;;3.80;3.80;;;;;24.14;52.30;100965.78;5114769;27;8854;-73
2021/05/31 12:35:43;;;;;;;;;7.00;7.00;;;;;23.85;53.46;100967.25;5131438;27;8879;-73
2021/05/31 12:38:40;;;;;;;;;7.80;7.80;;;;;23.79;53.20;100958.41;5114220;27;9616;-74
2021/05/31 12:41:36;;;;;;;;;8.40;7.40;;;;;23.98;54.08;100967.53;5122027;27;8850;-73
2021/05/31 12:44:34;;;;;;;;;9.40;9.40;;;;;23.93;53.19;100965.19;5132365;27;8811;-74
2021/05/31 12:47:44;;;;;;;;;1.60;1.60;;;;;23.39;53.28;100970.34;5130249;27;8835;-74
2021/05/31 12:50:39;;;;;;;;;10.20;9.00;;;;;23.03;54.96;100968.50;5131415;27;8851;-75
2021/05/31 12:53:37;;;;;;;;;11.20;11.20;;;;;22.97;55.14;100966.53;5119903;27;8839;-74
2021/05/31 12:56:37;;;;;;;;;14.25;13.00;;;;;23.19;55.47;100965.22;5119506;27;9751;-74
2021/05/31 12:59:32;;;;;;;;;6.20;6.20;;;;;23.21;54.17;100968.41;5133128;27;8859;-77
2021/05/31 13:02:29;;;;;;;;;3.00;3.00;;;;;23.23;54.91;100956.72;5119319;27;8820;-72
2021/05/31 13:05:28;;;;;;;;;5.00;5.00;;;;;23.19;54.88;100948.28;5133531;27;8870;-73
2021/05/31 13:08:24;;;;;;;;;4.60;4.60;;;;;23.25;55.21;100955.09;5098578;28;8845;-73
2021/05/31 13:11:20;;;;;;;;;5.20;5.20;;;;;23.08;55.42;100956.00;5099105;28;8853;-75
2021/05/31 13:14:21;;;;;;;;;7.20;7.20;;;;;23.29;54.73;100957.91;5113486;28;8829;-74
2021/05/31 13:17:16;;;;;;;;;4.00;4.00;;;;;23.37;55.10;100953.00;5107176;27;8835;-74
2021/05/31 13:20:14;;;;;;;;;4.00;4.00;;;;;22.89;55.32;100954.47;5119353;27;8807;-74
2021/05/31 13:23:14;;;;;;;;;3.00;3.00;;;;;22.79;54.73;100946.81;5091783;27;9719;-74
2021/05/31 13:26:13;;;;;;;;;5.20;4.00;;;;;22.96;55.63;100951.63;5136278;27;8866;-73
2021/05/31 13:29:10;;;;;;;;;5.00;5.00;;;;;23.01;54.95;100954.03;5135452;27;8870;-74
2021/05/31 13:32:09;;;;;;;;;5.20;5.20;;;;;23.11;54.73;100957.19;5135165;27;8815;-74
2021/05/31 13:35:09;;;;;;;;;3.60;3.60;;;;;23.21;54.37;100957.13;5115898;28;8853;-74
2021/05/31 13:38:06;;;;;;;;;6.00;5.60;;;;;23.30;54.78;100962.31;5128291;27;8957;-73
2021/05/31 13:41:03;;;;;;;;;6.00;6.00;;;;;22.98;55.25;100960.47;5135028;27;8835;-74
2021/05/31 13:43:58;;;;;;;;;2.80;2.80;;;;;22.91;55.11;100968.94;5129125;27;8823;-74
2021/05/31 13:46:54;;;;;;;;;5.40;4.80;;;;;23.15;55.65;100966.44;5102627;28;8947;-74
2021/05/31 13:49:50;;;;;;;;;3.00;3.00;;;;;22.66;54.58;100968.22;5103261;28;8907;-74
2021/05/31 13:52:48;;;;;;;;;3.80;3.80;;;;;22.63;55.79;100971.84;5103705;28;8831;-74
2021/05/31 13:55:44;;;;;;;;;3.50;3.50;;;;;22.59;55.62;100957.75;5131652;27;8843;-74
2021/05/31 13:58:42;;;;;;;;;5.00;5.00;;;;;22.64;55.12;100962.97;5124362;28;8837;-74
2021/05/31 14:01:38;;;;;;;;;3.40;3.40;;;;;22.56;55.49;100954.97;5119169;27;8847;-73
2021/05/31 14:04:34;;;;;;;;;4.60;4.60;;;;;22.68;56.21;100962.97;5119100;28;8849;-74